Iola, KS (66749)

5:22 PM CDT on May 26, 2016 (GMT -0500)
KIKS and KIOL Radio | Change Station
CLOSE
Current Station
Personal Weather Station
Location: Iola, KS
Elevation: 968 ft
Nearby Weather Stations

Elev 968 ft 37.90 °N, 95.41 °W | Updated 21 seconds ago

Partly Cloudy
Partly Cloudy
84.6 °F
Feels Like 98 °F
N
3.4
Wind Variable Wind from South
Gusts 4.9 mph

Today
High -- | Low -- °F
--% Chance of Precip.
Yesterday
High -- | Low -- °F
Precip. -- in
6:03 AM 8:34 PM
Waning Gibbous, 76% visible
Pressure 29.72 in
Visibility 10.0 miles
Clouds Scattered Clouds 2700 ft
Scattered Clouds 3500 ft
Heat Index 98 °F
Dew Point 80 °F
Humidity 85%
Rainfall 0.00 in
Snow Depth Not available.
UV 2.0 out of 12
Pollen 9.40 out of 12
Air Quality Not available.
Flu Activity Sporadic
METAR KCNU 262152Z AUTO 17011KT 10SM SCT027 SCT035 28/22 A2976 RMK AO2 PK WND 18027/2110 SLP063 T02830222

More Conditions Fewer Conditions

Pressure 29.72 in
Visibility 10.0 miles
Clouds Scattered Clouds 2700 ft
Scattered Clouds 3500 ft
Heat Index 98 °F
Dew Point 80 °F
Humidity 85%
Rainfall 0.00 in
Snow Depth Not available.
UV 2.0 out of 12
Pollen 9.40 out of 12
Air Quality Not available.
Flu Activity Sporadic
METAR KCNU 262152Z AUTO 17011KT 10SM SCT027 SCT035 28/22 A2976 RMK AO2 PK WND 18027/2110 SLP063 T02830222

More Conditions Fewer Conditions

10-Day Weather Forecast

Almanac

Astronomy

May. 26, 2016 Rise Set
Actual Time 6:03 AM CDT 8:34 PM CDT
Civil Twilight 5:33 AM CDT 9:04 PM CDT
Nautical Twilight 4:55 AM CDT 9:42 PM CDT
Astronomical Twilight 4:13 AM CDT 10:24 PM CDT
Moon No Moon Rise 10:16 AM CDT
Length of Visible Light 15h 31m
Length of Day
14h 31m
Tomorrow will be 1m 16s longer.
Waning Gibbous, 76% of the Moon is Illuminated
Today
Waning Gibbous
May 29
Last Quarter
Jun 4
New
Jun 12
First Quarter
Jun 20
Full

Today's Extremes

State Highs State Lows

Community

WunderPhotos

Upload Photos

1,913,894 photos uploaded!

Nearby

Snow Depth

Station Depth Elevation
No new snow has been reported.

Earthquake Activity

City Distance Mag. Time & Date
No recent earthquake activity has been reported nearby.
Minimum magnitude displayed is 2.5.

Coastal Water Temperatures

Place Temperature
No Stations Reporting

Nearby Weather Stations